Temp: 5.2°C   Baro: 1000.3mb
  Wind: 0.0mph   Dir: WSW (242°)
  Rain: 0.0mm (0.0mm/hr)
  Solar: 65W/m2  Hum: 90%
 
Bath Spa Weather Historical Data
Daily Summary for July 6, 2019 Units:  Metric    English   Both
Next Day »
Daily Weekly Monthly Yearly Custom
  High: Low: Average:
Temperature: 23.7 °C 11.0 °C 17.7 °C
Dew Point: 16.2 °C 9.3 °C 13.2 °C
Humidity: 90% 58% 76%
Wind Speed: 17.7km/h 0.0km/h 3.3km/h
Wind Gust: 20.9km/h - -
Wind direction- - WSW
Pressure: 1015.8 hPa 1012.8 hPa -
Precipitation: 0.0 mm    
Historical Graphs
 
 
Tabular Data for July 6, 2019
Time Temperature Dew Point Pressure Wind direction Wind Speed Wind Gust Humidity Rainfall Rate (Hourly) solar
00:04 15.1 °C 11.3 °C 1015.8 hPa West 6.4 km/h 6.4 km/h 78% 0.0 mm 0.00 W/m2
00:09 15.0 °C 11.2 °C 1015.5 hPa Calm   3.2 km/h 78% 0.0 mm 0.00 W/m2
00:14 15.1 °C 11.5 °C 1015.5 hPa Calm   1.6 km/h 79% 0.0 mm 0.00 W/m2
00:19 15.1 °C 11.5 °C 1015.8 hPa Calm     79% 0.0 mm 0.00 W/m2
00:24 15.2 °C 11.6 °C 1015.8 hPa Calm     79% 0.0 mm 0.00 W/m2
00:29 15.0 °C 11.4 °C 1015.8 hPa Calm     79% 0.0 mm 0.00 W/m2
00:34 14.9 °C 11.3 °C 1015.8 hPa Calm     79% 0.0 mm 0.00 W/m2
00:39 14.9 °C 11.3 °C 1015.8 hPa Calm     79% 0.0 mm 0.00 W/m2
00:44 14.8 °C 11.2 °C 1015.5 hPa Calm     79% 0.0 mm 0.00 W/m2
00:49 14.8 °C 11.4 °C 1015.5 hPa Calm     80% 0.0 mm 0.00 W/m2
00:54 14.8 °C 11.4 °C 1015.5 hPa Calm     80% 0.0 mm 0.00 W/m2
00:59 14.7 °C 11.3 °C 1015.5 hPa Calm     80% 0.0 mm 0.00 W/m2
01:04 14.7 °C 11.3 °C 1015.5 hPa Calm     80% 0.0 mm 0.00 W/m2
01:09 14.6 °C 11.2 °C 1015.1 hPa Calm     80% 0.0 mm 0.00 W/m2
01:14 14.5 °C 11.3 °C 1015.1 hPa Calm     81% 0.0 mm 0.00 W/m2
01:19 14.3 °C 11.1 °C 1015.1 hPa Calm     81% 0.0 mm 0.00 W/m2
01:24 14.2 °C 11.0 °C 1015.1 hPa Calm     81% 0.0 mm 0.00 W/m2
01:29 14.1 °C 11.1 °C 1015.1 hPa Calm     82% 0.0 mm 0.00 W/m2
01:34 14.1 °C 11.1 °C 1015.1 hPa Calm     82% 0.0 mm 0.00 W/m2
01:39 14.1 °C 11.1 °C 1015.1 hPa Calm     82% 0.0 mm 0.00 W/m2
01:44 14.0 °C 11.0 °C 1015.1 hPa Calm     82% 0.0 mm 0.00 W/m2
01:49 14.0 °C 11.2 °C 1015.1 hPa Calm     83% 0.0 mm 0.00 W/m2
01:54 13.9 °C 11.1 °C 1015.1 hPa Calm     83% 0.0 mm 0.00 W/m2
01:59 13.8 °C 11.0 °C 1015.1 hPa Calm     83% 0.0 mm 0.00 W/m2
02:04 13.8 °C 11.0 °C 1015.1 hPa Calm     83% 0.0 mm 0.00 W/m2
02:09 13.8 °C 11.0 °C 1015.1 hPa Calm     83% 0.0 mm 0.00 W/m2
02:14 13.8 °C 11.1 °C 1015.1 hPa Calm     84% 0.0 mm 0.00 W/m2
02:19 13.7 °C 11.0 °C 1015.1 hPa Calm     84% 0.0 mm 0.00 W/m2
02:24 13.7 °C 11.0 °C 1015.1 hPa Calm     84% 0.0 mm 0.00 W/m2
02:29 13.6 °C 10.9 °C 1015.1 hPa Calm     84% 0.0 mm 0.00 W/m2
02:34 13.4 °C 10.8 °C 1014.8 hPa Calm     84% 0.0 mm 0.00 W/m2
02:39 13.3 °C 10.7 °C 1014.8 hPa Calm     84% 0.0 mm 0.00 W/m2
02:44 13.2 °C 10.7 °C 1014.8 hPa Calm     85% 0.0 mm 0.00 W/m2
02:49 13.1 °C 10.6 °C 1014.8 hPa Calm     85% 0.0 mm 0.00 W/m2
02:54 13.0 °C 10.5 °C 1014.8 hPa Calm     85% 0.0 mm 0.00 W/m2
02:59 12.9 °C 10.4 °C 1014.8 hPa Calm     85% 0.0 mm 0.00 W/m2
03:04 12.9 °C 10.4 °C 1014.4 hPa Calm     85% 0.0 mm 0.00 W/m2
03:09 12.9 °C 10.6 °C 1014.4 hPa Calm     86% 0.0 mm 0.00 W/m2
03:14 12.7 °C 10.4 °C 1014.4 hPa Calm     86% 0.0 mm 0.00 W/m2
03:19 12.4 °C 10.1 °C 1014.4 hPa Calm     86% 0.0 mm 0.00 W/m2
03:24 12.4 °C 10.1 °C 1014.4 hPa Calm     86% 0.0 mm 0.00 W/m2
03:29 12.3 °C 10.0 °C 1014.4 hPa Calm     86% 0.0 mm 0.00 W/m2
03:34 12.3 °C 10.0 °C 1014.4 hPa Calm     86% 0.0 mm 0.00 W/m2
03:39 12.3 °C 10.0 °C 1014.4 hPa Calm     86% 0.0 mm 0.00 W/m2
03:44 12.2 °C 9.9 °C 1014.4 hPa Calm     86% 0.0 mm 0.00 W/m2
03:49 12.1 °C 10.0 °C 1014.4 hPa Calm     87% 0.0 mm 0.00 W/m2
03:54 12.2 °C 10.1 °C 1014.4 hPa Calm     87% 0.0 mm 0.00 W/m2
03:59 12.0 °C 9.9 °C 1014.1 hPa Calm     87% 0.0 mm 0.00 W/m2
04:04 11.9 °C 9.8 °C 1014.1 hPa Calm     87% 0.0 mm 0.00 W/m2
04:09 11.8 °C 9.7 °C 1014.1 hPa Calm     87% 0.0 mm 0.00 W/m2
04:14 11.8 °C 9.7 °C 1014.4 hPa Calm     87% 0.0 mm 0.00 W/m2
04:19 11.7 °C 9.6 °C 1014.4 hPa Calm     87% 0.0 mm 0.00 W/m2
04:24 11.6 °C 9.5 °C 1014.4 hPa Calm     87% 0.0 mm 0.00 W/m2
04:29 11.5 °C 9.4 °C 1014.4 hPa Calm     87% 0.0 mm 0.00 W/m2
04:34 11.5 °C 9.6 °C 1014.1 hPa Calm     88% 0.0 mm 0.00 W/m2
04:39 11.5 °C 9.6 °C 1014.4 hPa Calm     88% 0.0 mm 0.00 W/m2
04:44 11.5 °C 9.6 °C 1014.1 hPa Calm     88% 0.0 mm 0.00 W/m2
04:49 11.5 °C 9.6 °C 1014.4 hPa Calm     88% 0.0 mm 0.00 W/m2
04:54 11.3 °C 9.4 °C 1014.1 hPa Calm     88% 0.0 mm 0.00 W/m2
04:59 11.3 °C 9.4 °C 1014.1 hPa Calm     88% 0.0 mm 0.00 W/m2
05:04 11.4 °C 9.5 °C 1014.1 hPa Calm     88% 0.0 mm 5.00 W/m2
05:09 11.4 °C 9.5 °C 1014.1 hPa Calm     88% 0.0 mm 5.00 W/m2
05:14 11.3 °C 9.4 °C 1014.1 hPa Calm     88% 0.0 mm 7.00 W/m2
05:19 11.2 °C 9.3 °C 1014.1 hPa Calm     88% 0.0 mm 11.00 W/m2
05:24 11.2 °C 9.3 °C 1014.1 hPa Calm     88% 0.0 mm 12.00 W/m2
05:29 11.1 °C 9.4 °C 1014.1 hPa Calm     89% 0.0 mm 14.00 W/m2
05:34 11.0 °C 9.3 °C 1014.1 hPa Calm     89% 0.0 mm 14.00 W/m2
05:39 11.0 °C 9.3 °C 1014.1 hPa Calm     89% 0.0 mm 16.00 W/m2
05:44 11.0 °C 9.3 °C 1014.1 hPa Calm     89% 0.0 mm 18.00 W/m2
05:49 11.0 °C 9.3 °C 1014.1 hPa Calm     89% 0.0 mm 19.00 W/m2
05:54 11.2 °C 9.5 °C 1014.1 hPa Calm     89% 0.0 mm 21.00 W/m2
05:59 11.3 °C 9.6 °C 1014.1 hPa Calm     89% 0.0 mm 21.00 W/m2
06:04 11.3 °C 9.6 °C 1014.1 hPa Calm     89% 0.0 mm 23.00 W/m2
06:09 11.3 °C 9.6 °C 1014.1 hPa Calm     89% 0.0 mm 25.00 W/m2
06:14 11.3 °C 9.6 °C 1014.1 hPa Calm     89% 0.0 mm 25.00 W/m2
06:19 11.4 °C 9.7 °C 1014.1 hPa Calm     89% 0.0 mm 26.00 W/m2
06:24 11.5 °C 9.7 °C 1014.1 hPa Calm     89% 0.0 mm 26.00 W/m2
06:29 11.7 °C 9.9 °C 1013.8 hPa Calm     89% 0.0 mm 30.00 W/m2
06:34 11.9 °C 10.1 °C 1013.8 hPa Calm     89% 0.0 mm 35.00 W/m2
06:39 12.2 °C 10.6 °C 1013.8 hPa Calm     90% 0.0 mm 44.00 W/m2
06:44 12.4 °C 10.8 °C 1013.8 hPa Calm     90% 0.0 mm 56.00 W/m2
06:49 12.5 °C 10.7 °C 1013.8 hPa Calm     89% 0.0 mm 67.00 W/m2
06:54 12.7 °C 10.9 °C 1013.8 hPa Calm     89% 0.0 mm 79.00 W/m2
06:59 12.9 °C 11.1 °C 1014.1 hPa Calm     89% 0.0 mm 93.00 W/m2
07:04 13.0 °C 11.2 °C 1013.8 hPa Calm     89% 0.0 mm 111.00 W/m2
07:09 13.3 °C 11.5 °C 1013.8 hPa Calm     89% 0.0 mm 128.00 W/m2
07:14 13.4 °C 11.6 °C 1013.8 hPa West 1.4 km/h 3.2 km/h 89% 0.0 mm 146.00 W/m2
07:19 13.5 °C 11.7 °C 1013.8 hPa West 4.8 km/h 4.8 km/h 89% 0.0 mm 160.00 W/m2
07:24 13.7 °C 11.7 °C 1013.8 hPa West 3.2 km/h 6.4 km/h 88% 0.0 mm 179.00 W/m2
07:29 13.9 °C 11.9 °C 1013.8 hPa Calm   4.8 km/h 88% 0.0 mm 193.00 W/m2
07:34 14.0 °C 12.0 °C 1013.8 hPa West 3.2 km/h 6.4 km/h 88% 0.0 mm 209.00 W/m2
07:39 14.1 °C 12.1 °C 1013.8 hPa West 4.7 km/h 4.8 km/h 88% 0.0 mm 225.00 W/m2
07:44 14.3 °C 12.3 °C 1013.8 hPa West 4.7 km/h 6.4 km/h 88% 0.0 mm 241.00 W/m2
07:49 14.4 °C 12.3 °C 1014.1 hPa West 4.7 km/h 8.0 km/h 87% 0.0 mm 257.00 W/m2
07:54 14.6 °C 12.5 °C 1013.8 hPa West 1.4 km/h 4.8 km/h 87% 0.0 mm 272.00 W/m2
07:59 14.9 °C 12.6 °C 1014.1 hPa West 4.7 km/h 8.0 km/h 86% 0.0 mm 290.00 W/m2
08:04 15.0 °C 12.7 °C 1013.8 hPa West 4.7 km/h 8.0 km/h 86% 0.0 mm 304.00 W/m2
08:09 15.2 °C 12.7 °C 1013.8 hPa West 1.4 km/h 8.0 km/h 85% 0.0 mm 320.00 W/m2
08:14 15.5 °C 12.6 °C 1013.8 hPa West 4.7 km/h 9.7 km/h 83% 0.0 mm 336.00 W/m2
08:19 15.7 °C 12.6 °C 1013.8 hPa Calm   8.0 km/h 82% 0.0 mm 353.00 W/m2
08:24 15.9 °C 12.3 °C 1013.8 hPa West 3.2 km/h 8.0 km/h 79% 0.0 mm 369.00 W/m2
08:29 16.3 °C 12.3 °C 1013.8 hPa West 3.2 km/h 8.0 km/h 77% 0.0 mm 385.00 W/m2
08:34 16.7 °C 12.4 °C 1013.8 hPa West 1.4 km/h 6.4 km/h 76% 0.0 mm 397.00 W/m2
08:39 16.8 °C 12.3 °C 1013.8 hPa West 4.7 km/h 9.7 km/h 75% 0.0 mm 411.00 W/m2
08:44 17.2 °C 12.5 °C 1013.8 hPa West 1.4 km/h 4.8 km/h 74% 0.0 mm 425.00 W/m2
08:49 17.4 °C 12.5 °C 1013.8 hPa West 4.7 km/h 6.4 km/h 73% 0.0 mm 439.00 W/m2
08:54 17.4 °C 12.5 °C 1013.8 hPa West 1.4 km/h 4.8 km/h 73% 0.0 mm 450.00 W/m2
08:59 17.6 °C 12.5 °C 1013.8 hPa West 6.4 km/h 8.0 km/h 72% 0.0 mm 462.00 W/m2
09:04 17.8 °C 12.7 °C 1013.8 hPa West 3.2 km/h 6.4 km/h 72% 0.0 mm 471.00 W/m2
09:09 17.9 °C 12.6 °C 1013.8 hPa West 1.4 km/h 4.8 km/h 71% 0.0 mm 487.00 W/m2
09:14 17.8 °C 12.3 °C 1013.8 hPa West 1.4 km/h 9.7 km/h 70% 0.0 mm 512.00 W/m2
09:19 18.0 °C 12.4 °C 1013.8 hPa West 6.4 km/h 8.0 km/h 70% 0.0 mm 577.00 W/m2
09:24 18.3 °C 12.5 °C 1013.8 hPa West 12.9 km/h 12.9 km/h 69% 0.0 mm 538.00 W/m2
09:29 18.0 °C 12.7 °C 1013.8 hPa West 4.7 km/h 9.7 km/h 71% 0.0 mm 360.00 W/m2
09:34 18.2 °C 12.9 °C 1013.8 hPa West 7.9 km/h 8.0 km/h 71% 0.0 mm 343.00 W/m2
09:39 18.2 °C 12.9 °C 1013.8 hPa West 6.4 km/h 9.7 km/h 71% 0.0 mm 497.00 W/m2
09:44 18.2 °C 12.9 °C 1013.8 hPa West 6.4 km/h 8.0 km/h 71% 0.0 mm 211.00 W/m2
09:49 18.4 °C 13.0 °C 1013.8 hPa West 6.4 km/h 11.3 km/h 71% 0.0 mm 664.00 W/m2
09:54 18.8 °C 13.0 °C 1013.4 hPa Calm   9.7 km/h 69% 0.0 mm 635.00 W/m2
09:59 19.1 °C 13.3 °C 1013.4 hPa West 6.4 km/h 11.3 km/h 69% 0.0 mm 613.00 W/m2
10:04 19.3 °C 13.5 °C 1013.4 hPa Calm     69% 0.0 mm 645.00 W/m2
10:09 19.1 °C 13.3 °C 1013.4 hPa NW 6.4 km/h 12.9 km/h 69% 0.0 mm 671.00 W/m2
10:14 19.1 °C 13.5 °C 1013.4 hPa NW 4.7 km/h 8.0 km/h 70% 0.0 mm 708.00 W/m2
10:19 19.4 °C 13.6 °C 1013.4 hPa NW 3.2 km/h 14.5 km/h 69% 0.0 mm 712.00 W/m2
10:24 19.7 °C 13.6 °C 1013.4 hPa Calm   6.4 km/h 68% 0.0 mm 290.00 W/m2
10:29 19.7 °C 13.6 °C 1013.4 hPa NW 1.4 km/h 3.2 km/h 68% 0.0 mm 264.00 W/m2
10:34 20.1 °C 13.8 °C 1013.4 hPa Calm   3.2 km/h 67% 0.0 mm 251.00 W/m2
10:39 20.0 °C 13.7 °C 1013.4 hPa NW 3.2 km/h 4.8 km/h 67% 0.0 mm 278.00 W/m2
10:44 20.0 °C 13.5 °C 1013.4 hPa Calm   3.2 km/h 66% 0.0 mm 308.00 W/m2
10:49 20.0 °C 13.5 °C 1013.4 hPa WNW 13.0 km/h 12.9 km/h 66% 0.0 mm 679.00 W/m2
10:54 20.1 °C 13.3 °C 1013.4 hPa Calm   8.0 km/h 65% 0.0 mm 330.00 W/m2
10:59 20.0 °C 13.5 °C 1013.4 hPa Calm   3.2 km/h 66% 0.0 mm 281.00 W/m2
11:04 20.5 °C 13.5 °C 1013.4 hPa North 1.4 km/h 4.8 km/h 64% 0.0 mm 320.00 W/m2
11:09 20.4 °C 13.6 °C 1013.4 hPa North 3.2 km/h 6.4 km/h 65% 0.0 mm 951.00 W/m2
11:14 20.4 °C 13.6 °C 1013.4 hPa NNW 3.2 km/h 3.2 km/h 65% 0.0 mm 320.00 W/m2
11:19 21.3 °C 14.0 °C 1013.1 hPa Calm   6.4 km/h 63% 0.0 mm 345.00 W/m2
11:24 21.5 °C 14.6 °C 1013.1 hPa Calm   1.6 km/h 65% 0.0 mm 369.00 W/m2
11:29 22.1 °C 15.4 °C 1013.1 hPa North 4.8 km/h 4.8 km/h 66% 0.0 mm 1063.00 W/m2
11:34 21.7 °C 15.1 °C 1013.1 hPa Calm   11.3 km/h 66% 0.0 mm 1002.00 W/m2
11:39 21.5 °C 14.9 °C 1013.1 hPa North 3.2 km/h 6.4 km/h 66% 0.0 mm 237.00 W/m2
11:44 21.2 °C 14.8 °C 1013.1 hPa Calm   1.6 km/h 67% 0.0 mm 371.00 W/m2
11:49 21.0 °C 14.6 °C 1013.1 hPa Calm   3.2 km/h 67% 0.0 mm 1016.00 W/m2
11:54 22.2 °C 15.3 °C 1013.1 hPa North 4.8 km/h 4.8 km/h 65% 0.0 mm 1058.00 W/m2
11:59 21.7 °C 14.8 °C 1013.1 hPa Calm   9.7 km/h 65% 0.0 mm 633.00 W/m2
12:04 21.8 °C 15.2 °C 1013.1 hPa NNE 6.4 km/h 16.1 km/h 66% 0.0 mm 367.00 W/m2
12:09 22.0 °C 15.1 °C 1013.1 hPa NNW 1.4 km/h 8.0 km/h 65% 0.0 mm 297.00 W/m2
12:14 21.3 °C 14.7 °C 1013.1 hPa North 1.4 km/h 6.4 km/h 66% 0.0 mm 306.00 W/m2
12:19 21.3 °C 14.9 °C 1013.1 hPa NNW 4.7 km/h 9.7 km/h 67% 0.0 mm 933.00 W/m2
12:24 21.8 °C 14.7 °C 1013.1 hPa NNW 3.2 km/h 3.2 km/h 64% 0.0 mm 988.00 W/m2
12:29 21.7 °C 14.3 °C 1012.8 hPa NNW 4.7 km/h 8.0 km/h 63% 0.0 mm 1137.00 W/m2
12:34 21.7 °C 15.1 °C 1013.1 hPa NNW 3.2 km/h 14.5 km/h 66% 0.0 mm 316.00 W/m2
12:39 21.5 °C 14.9 °C 1012.8 hPa North 7.9 km/h 16.1 km/h 66% 0.0 mm 271.00 W/m2
12:44 21.8 °C 14.9 °C 1013.1 hPa NNE 1.4 km/h 8.0 km/h 65% 0.0 mm 248.00 W/m2
12:49 21.5 °C 14.6 °C 1013.1 hPa NNW 6.4 km/h 9.7 km/h 65% 0.0 mm 385.00 W/m2
12:54 21.7 °C 15.1 °C 1013.1 hPa NNW 4.7 km/h 4.8 km/h 66% 0.0 mm 541.00 W/m2
12:59 21.8 °C 14.7 °C 1013.1 hPa NW 9.7 km/h 16.1 km/h 64% 0.0 mm 629.00 W/m2
13:04 21.9 °C 14.8 °C 1012.8 hPa WNW 3.2 km/h 9.7 km/h 64% 0.0 mm 1104.00 W/m2
13:09 23.1 °C 15.2 °C 1012.8 hPa NW 1.4 km/h 8.0 km/h 61% 0.0 mm 918.00 W/m2
13:14 22.6 °C 14.9 °C 1013.1 hPa North 4.7 km/h 12.9 km/h 62% 0.0 mm 320.00 W/m2
13:19 22.2 °C 15.1 °C 1013.1 hPa NNE 1.4 km/h 11.3 km/h 64% 0.0 mm 299.00 W/m2
13:24 21.9 °C 14.8 °C 1013.1 hPa North 6.4 km/h 9.7 km/h 64% 0.0 mm 522.00 W/m2
13:29 22.1 °C 15.0 °C 1013.1 hPa NNW 3.2 km/h 9.7 km/h 64% 0.0 mm 566.00 W/m2
13:34 22.0 °C 14.9 °C 1012.8 hPa WNW 13.0 km/h 12.9 km/h 64% 0.0 mm 341.00 W/m2
13:39 22.0 °C 14.9 °C 1012.8 hPa WNW 9.7 km/h 11.3 km/h 64% 0.0 mm 427.00 W/m2
13:44 22.2 °C 14.8 °C 1012.8 hPa West 7.9 km/h 9.7 km/h 63% 0.0 mm 550.00 W/m2
13:49 22.3 °C 14.7 °C 1012.8 hPa West 9.7 km/h 9.7 km/h 62% 0.0 mm 461.00 W/m2
13:54 22.8 °C 15.1 °C 1012.8 hPa West 7.9 km/h 8.0 km/h 62% 0.0 mm 1187.00 W/m2
13:59 23.5 °C 15.0 °C 1012.8 hPa NW 16.3 km/h 16.1 km/h 59% 0.0 mm 582.00 W/m2
14:04 23.1 °C 15.2 °C 1012.8 hPa NW 9.7 km/h 9.7 km/h 61% 0.0 mm 1107.00 W/m2
14:09 23.4 °C 14.7 °C 1012.8 hPa NW 7.9 km/h 16.1 km/h 58% 0.0 mm 700.00 W/m2
14:14 22.9 °C 14.5 °C 1012.8 hPa NW 4.7 km/h 8.0 km/h 59% 0.0 mm 366.00 W/m2
14:19 22.8 °C 14.6 °C 1012.8 hPa NW 1.4 km/h 9.7 km/h 60% 0.0 mm 580.00 W/m2
14:24 23.2 °C 14.5 °C 1012.8 hPa WNW 7.9 km/h 9.7 km/h 58% 0.0 mm 1021.00 W/m2
14:29 23.7 °C 14.9 °C 1012.8 hPa WNW 6.4 km/h 9.7 km/h 58% 0.0 mm 1014.00 W/m2
14:34 23.2 °C 15.5 °C 1012.8 hPa North 14.3 km/h 20.9 km/h 62% 0.0 mm 364.00 W/m2
14:39 22.4 °C 15.7 °C 1012.8 hPa NW 16.3 km/h 17.7 km/h 66% 0.0 mm 394.00 W/m2
14:44 22.7 °C 16.0 °C 1012.8 hPa NW 7.9 km/h 14.5 km/h 66% 0.0 mm 1041.00 W/m2
14:49 22.7 °C 15.8 °C 1012.8 hPa NNW 7.9 km/h 11.3 km/h 65% 0.0 mm 380.00 W/m2
14:54 22.1 °C 15.7 °C 1012.8 hPa NNW 1.4 km/h 16.1 km/h 67% 0.0 mm 478.00 W/m2
14:59 22.4 °C 16.0 °C 1012.8 hPa NNW 6.4 km/h 11.3 km/h 67% 0.0 mm 631.00 W/m2
15:04 22.2 °C 15.8 °C 1012.8 hPa NNW 9.7 km/h 17.7 km/h 67% 0.0 mm 831.00 W/m2
15:09 22.0 °C 15.6 °C 1012.8 hPa NNW 4.7 km/h 16.1 km/h 67% 0.0 mm 489.00 W/m2
15:14 21.8 °C 15.6 °C 1012.8 hPa NNW 6.4 km/h 16.1 km/h 68% 0.0 mm 432.00 W/m2
15:19 21.8 °C 15.6 °C 1012.8 hPa NNW 7.9 km/h 16.1 km/h 68% 0.0 mm 510.00 W/m2
15:24 21.9 °C 15.7 °C 1012.8 hPa NNE 11.1 km/h 12.9 km/h 68% 0.0 mm 418.00 W/m2
15:29 22.2 °C 16.0 °C 1012.8 hPa WNW 17.7 km/h 17.7 km/h 68% 0.0 mm 490.00 W/m2
15:34 22.2 °C 16.0 °C 1012.8 hPa NW 9.7 km/h 17.7 km/h 68% 0.0 mm 566.00 W/m2
15:39 21.7 °C 15.8 °C 1012.8 hPa WNW 13.0 km/h 14.5 km/h 69% 0.0 mm 346.00 W/m2
15:44 21.8 °C 15.6 °C 1012.8 hPa West 11.1 km/h 16.1 km/h 68% 0.0 mm 378.00 W/m2
15:49 21.8 °C 15.6 °C 1012.8 hPa NW 6.4 km/h 9.7 km/h 68% 0.0 mm 338.00 W/m2
15:54 21.9 °C 15.5 °C 1012.8 hPa NW 9.7 km/h 12.9 km/h 67% 0.0 mm 292.00 W/m2
15:59 21.8 °C 15.6 °C 1012.8 hPa NNW 6.4 km/h 11.3 km/h 68% 0.0 mm 285.00 W/m2
16:04 21.5 °C 15.3 °C 1012.8 hPa West 4.7 km/h 12.9 km/h 68% 0.0 mm 248.00 W/m2
16:09 21.5 °C 15.3 °C 1012.8 hPa WNW 13.0 km/h 16.1 km/h 68% 0.0 mm 230.00 W/m2
16:14 21.1 °C 15.2 °C 1012.8 hPa NNW 6.4 km/h 14.5 km/h 69% 0.0 mm 265.00 W/m2
16:19 21.1 °C 15.4 °C 1012.8 hPa NW 1.4 km/h 8.0 km/h 70% 0.0 mm 341.00 W/m2
16:24 21.3 °C 15.4 °C 1012.8 hPa NW 13.0 km/h 14.5 km/h 69% 0.0 mm 392.00 W/m2
16:29 21.3 °C 15.6 °C 1012.8 hPa NW 17.7 km/h 17.7 km/h 70% 0.0 mm 381.00 W/m2
16:34 21.3 °C 15.6 °C 1012.8 hPa NNW 7.9 km/h 11.3 km/h 70% 0.0 mm 359.00 W/m2
16:39 21.5 °C 15.6 °C 1012.8 hPa NNW 1.4 km/h 12.9 km/h 69% 0.0 mm 663.00 W/m2
16:44 21.4 °C 15.7 °C 1012.8 hPa North 3.2 km/h 16.1 km/h 70% 0.0 mm 504.00 W/m2
16:49 21.5 °C 15.8 °C 1012.8 hPa NW 13.0 km/h 16.1 km/h 70% 0.0 mm 520.00 W/m2
16:54 21.4 °C 15.5 °C 1012.8 hPa North 4.7 km/h 16.1 km/h 69% 0.0 mm 446.00 W/m2
16:59 21.5 °C 15.8 °C 1012.8 hPa North 7.9 km/h 16.1 km/h 70% 0.0 mm 722.00 W/m2
17:04 21.9 °C 16.0 °C 1012.8 hPa North 17.7 km/h 17.7 km/h 69% 0.0 mm 427.00 W/m2
17:09 21.9 °C 16.0 °C 1012.8 hPa WNW 9.7 km/h 12.9 km/h 69% 0.0 mm 675.00 W/m2
17:14 22.2 °C 16.0 °C 1012.8 hPa NNE 7.9 km/h 9.7 km/h 68% 0.0 mm 636.00 W/m2
17:19 22.6 °C 16.2 °C 1012.8 hPa Calm   8.0 km/h 67% 0.0 mm 578.00 W/m2
17:24 22.6 °C 15.9 °C 1012.8 hPa North 4.7 km/h 11.3 km/h 66% 0.0 mm 422.00 W/m2
17:29 22.2 °C 15.8 °C 1012.8 hPa WNW 7.9 km/h 12.9 km/h 67% 0.0 mm 387.00 W/m2
17:34 22.1 °C 15.9 °C 1012.8 hPa NW 4.7 km/h 6.4 km/h 68% 0.0 mm 218.00 W/m2
17:39 22.0 °C 15.8 °C 1012.8 hPa NNW 4.7 km/h 9.7 km/h 68% 0.0 mm 190.00 W/m2
17:44 21.5 °C 15.3 °C 1012.8 hPa North 6.4 km/h 19.3 km/h 68% 0.0 mm 165.00 W/m2
17:49 21.2 °C 15.3 °C 1012.8 hPa NNE 3.2 km/h 14.5 km/h 69% 0.0 mm 171.00 W/m2
17:54 21.2 °C 15.3 °C 1012.8 hPa North 11.1 km/h 14.5 km/h 69% 0.0 mm 149.00 W/m2
17:59 20.8 °C 15.3 °C 1012.8 hPa North 11.1 km/h 20.9 km/h 71% 0.0 mm 97.00 W/m2
18:04 20.5 °C 15.3 °C 1012.8 hPa NNE 11.1 km/h 14.5 km/h 72% 0.0 mm 105.00 W/m2
18:09 20.4 °C 15.2 °C 1012.8 hPa NNE 7.9 km/h 16.1 km/h 72% 0.0 mm 107.00 W/m2
18:14 20.3 °C 15.3 °C 1012.8 hPa NW 4.7 km/h 14.5 km/h 73% 0.0 mm 111.00 W/m2
18:19 20.3 °C 15.3 °C 1012.8 hPa NE 13.0 km/h 12.9 km/h 73% 0.0 mm 130.00 W/m2
18:24 20.3 °C 15.3 °C 1012.8 hPa North 6.4 km/h 12.9 km/h 73% 0.0 mm 183.00 W/m2
18:29 20.3 °C 15.3 °C 1012.8 hPa NNE 3.2 km/h 8.0 km/h 73% 0.0 mm 97.00 W/m2
18:34 20.3 °C 15.3 °C 1012.8 hPa NNW 3.2 km/h 8.0 km/h 73% 0.0 mm 104.00 W/m2
18:39 20.3 °C 15.3 °C 1012.8 hPa Calm   8.0 km/h 73% 0.0 mm 70.00 W/m2
18:44 20.2 °C 15.2 °C 1012.8 hPa North 1.4 km/h 8.0 km/h 73% 0.0 mm 77.00 W/m2
18:49 20.1 °C 15.1 °C 1012.8 hPa Calm   1.6 km/h 73% 0.0 mm 69.00 W/m2
18:54 20.2 °C 15.2 °C 1012.8 hPa NNW 8.0 km/h 8.0 km/h 73% 0.0 mm 72.00 W/m2
18:59 20.2 °C 15.0 °C 1012.8 hPa NNW 1.4 km/h 4.8 km/h 72% 0.0 mm 63.00 W/m2
19:04 20.0 °C 14.8 °C 1012.8 hPa North 12.9 km/h 12.9 km/h 72% 0.0 mm 76.00 W/m2
19:09 19.8 °C 14.8 °C 1012.8 hPa North 6.4 km/h 6.4 km/h 73% 0.0 mm 63.00 W/m2
19:14 19.8 °C 14.8 °C 1012.8 hPa NNE 6.4 km/h 9.7 km/h 73% 0.0 mm 58.00 W/m2
19:19 19.6 °C 14.6 °C 1013.1 hPa NNW 4.7 km/h 4.8 km/h 73% 0.0 mm 49.00 W/m2
19:24 19.7 °C 14.7 °C 1013.1 hPa North 6.4 km/h 9.7 km/h 73% 0.0 mm 63.00 W/m2
19:29 19.6 °C 14.6 °C 1013.1 hPa Calm   4.8 km/h 73% 0.0 mm 51.00 W/m2
19:34 19.5 °C 14.5 °C 1013.1 hPa North 1.4 km/h 4.8 km/h 73% 0.0 mm 51.00 W/m2
19:39 19.5 °C 14.5 °C 1013.1 hPa North 7.9 km/h 8.0 km/h 73% 0.0 mm 53.00 W/m2
19:44 19.4 °C 14.6 °C 1013.4 hPa Calm   14.5 km/h 74% 0.0 mm 49.00 W/m2
19:49 19.5 °C 14.7 °C 1013.4 hPa NNE 3.2 km/h 6.4 km/h 74% 0.0 mm 53.00 W/m2
19:53 19.5 °C 14.7 °C 1013.4 hPa NNE 1.4 km/h 4.8 km/h 74% 0.0 mm 56.00 W/m2
19:59 19.3 °C 14.5 °C 1013.4 hPa NW 3.2 km/h 6.4 km/h 74% 0.0 mm 49.00 W/m2
20:04 19.3 °C 14.5 °C 1013.4 hPa NNW 4.7 km/h 8.0 km/h 74% 0.0 mm 37.00 W/m2
20:09 19.3 °C 14.5 °C 1013.4 hPa Calm   3.2 km/h 74% 0.0 mm 37.00 W/m2
20:14 19.2 °C 14.5 °C 1013.4 hPa NNW 3.2 km/h 4.8 km/h 74% 0.0 mm 35.00 W/m2
20:19 19.2 °C 14.5 °C 1013.4 hPa Calm   4.8 km/h 74% 0.0 mm 28.00 W/m2
20:24 19.2 °C 14.5 °C 1013.4 hPa NNW 3.2 km/h 4.8 km/h 74% 0.0 mm 25.00 W/m2
20:29 19.3 °C 14.5 °C 1013.4 hPa NNW 3.2 km/h 3.2 km/h 74% 0.0 mm 26.00 W/m2
20:34 19.3 °C 14.5 °C 1013.4 hPa NNW 1.4 km/h 6.4 km/h 74% 0.0 mm 25.00 W/m2
20:39 19.2 °C 14.5 °C 1013.4 hPa NNW 8.0 km/h 8.0 km/h 74% 0.0 mm 25.00 W/m2
20:44 19.2 °C 14.5 °C 1013.4 hPa NNW 1.4 km/h 6.4 km/h 74% 0.0 mm 21.00 W/m2
20:49 19.1 °C 14.4 °C 1013.4 hPa NNW 9.7 km/h 9.7 km/h 74% 0.0 mm 16.00 W/m2
20:54 19.0 °C 14.3 °C 1013.4 hPa North 3.2 km/h 11.3 km/h 74% 0.0 mm 16.00 W/m2
20:59 19.0 °C 14.5 °C 1013.4 hPa North 4.7 km/h 6.4 km/h 75% 0.0 mm 12.00 W/m2
21:04 19.2 °C 14.7 °C 1013.4 hPa Calm   3.2 km/h 75% 0.0 mm 11.00 W/m2
21:09 19.2 °C 14.7 °C 1013.4 hPa Calm   1.6 km/h 75% 0.0 mm 7.00 W/m2
21:14 19.1 °C 14.6 °C 1013.4 hPa North 3.2 km/h 3.2 km/h 75% 0.0 mm 5.00 W/m2
21:19 18.9 °C 14.4 °C 1013.4 hPa Calm   4.8 km/h 75% 0.0 mm 0.00 W/m2
21:24 18.8 °C 14.3 °C 1013.4 hPa North 4.7 km/h 6.4 km/h 75% 0.0 mm 0.00 W/m2
21:29 18.5 °C 14.2 °C 1013.8 hPa North 4.7 km/h 11.3 km/h 76% 0.0 mm 0.00 W/m2
21:34 18.5 °C 14.2 °C 1013.8 hPa NE 4.7 km/h 8.0 km/h 76% 0.0 mm 0.00 W/m2
21:39 18.4 °C 14.3 °C 1013.8 hPa NE 1.4 km/h 4.8 km/h 77% 0.0 mm 0.00 W/m2
21:44 18.3 °C 14.2 °C 1013.8 hPa Calm   16.1 km/h 77% 0.0 mm 0.00 W/m2
21:49 18.0 °C 14.1 °C 1013.8 hPa North 7.9 km/h 9.7 km/h 78% 0.0 mm 0.00 W/m2
21:54 17.9 °C 14.0 °C 1014.1 hPa NNE 1.4 km/h 6.4 km/h 78% 0.0 mm 0.00 W/m2
21:59 17.8 °C 13.9 °C 1014.1 hPa NNW 9.7 km/h 11.3 km/h 78% 0.0 mm 0.00 W/m2
22:04 17.8 °C 13.9 °C 1014.1 hPa NNW 4.7 km/h 8.0 km/h 78% 0.0 mm 0.00 W/m2
22:09 17.8 °C 13.9 °C 1014.1 hPa NNW 3.2 km/h 6.4 km/h 78% 0.0 mm 0.00 W/m2
22:14 17.7 °C 13.8 °C 1014.1 hPa NNW 3.2 km/h 9.7 km/h 78% 0.0 mm 0.00 W/m2
22:19 17.7 °C 14.0 °C 1014.1 hPa Calm   3.2 km/h 79% 0.0 mm 0.00 W/m2
22:24 17.7 °C 14.0 °C 1014.1 hPa NNW 1.4 km/h 4.8 km/h 79% 0.0 mm 0.00 W/m2
22:29 17.7 °C 14.0 °C 1014.1 hPa Calm   1.6 km/h 79% 0.0 mm 0.00 W/m2
22:34 17.7 °C 14.0 °C 1014.4 hPa NNW 1.4 km/h 1.6 km/h 79% 0.0 mm 0.00 W/m2
22:39 17.7 °C 14.0 °C 1014.4 hPa Calm   1.6 km/h 79% 0.0 mm 0.00 W/m2
22:44 17.7 °C 13.8 °C 1014.4 hPa NNW 1.4 km/h 6.4 km/h 78% 0.0 mm 0.00 W/m2
22:49 17.8 °C 13.9 °C 1014.4 hPa NNW 1.4 km/h 8.0 km/h 78% 0.0 mm 0.00 W/m2
22:54 17.8 °C 13.9 °C 1014.4 hPa Calm   1.6 km/h 78% 0.0 mm 0.00 W/m2
22:59 17.8 °C 13.9 °C 1014.4 hPa Calm   1.6 km/h 78% 0.0 mm 0.00 W/m2
23:04 17.8 °C 13.9 °C 1014.4 hPa NNW 3.2 km/h 8.0 km/h 78% 0.0 mm 0.00 W/m2
23:09 17.8 °C 14.1 °C 1014.4 hPa Calm   3.2 km/h 79% 0.0 mm 0.00 W/m2
23:14 17.8 °C 14.1 °C 1014.4 hPa NNW 3.2 km/h 3.2 km/h 79% 0.0 mm 0.00 W/m2
23:19 17.6 °C 13.9 °C 1014.4 hPa Calm   1.6 km/h 79% 0.0 mm 0.00 W/m2
23:24 17.5 °C 14.0 °C 1014.4 hPa Calm   3.2 km/h 80% 0.0 mm 0.00 W/m2
23:29 17.4 °C 13.9 °C 1014.4 hPa Calm     80% 0.0 mm 0.00 W/m2
23:34 17.4 °C 13.9 °C 1014.4 hPa NNW 1.4 km/h 3.2 km/h 80% 0.0 mm 0.00 W/m2
23:39 17.5 °C 14.0 °C 1014.4 hPa NNW 1.4 km/h 3.2 km/h 80% 0.0 mm 0.00 W/m2
23:44 17.5 °C 14.0 °C 1014.4 hPa Calm   6.4 km/h 80% 0.0 mm 0.00 W/m2
23:49 17.4 °C 13.9 °C 1014.4 hPa Calm   1.6 km/h 80% 0.0 mm 0.00 W/m2
23:54 17.4 °C 14.1 °C 1014.4 hPa NNE 3.2 km/h 3.2 km/h 81% 0.0 mm 0.00 W/m2
23:59 17.4 °C 14.1 °C 1014.4 hPa NNE 1.4 km/h 4.8 km/h 81% 0.0 mm 0.00 W/m2